Terminal Aerodrome Forecast
Issued by NWS

Home | Current Version | Previous Version | Text Only | Print | Product List | Glossary On
Versions: 1 2 3 4 5 6 7 8 9 10 11 12 13 14 15 16 17 18 19 20 21 22 23 24
000
FTUS46 KPDT 191900 AAA
TAFYKM
TAF AMD
KYKM 191941Z 1920/2018 12003KT 6SM BR OVC007
      TEMPO 1920/1921 4SM BR OVC005
     FM192100 18005KT P6SM SCT009 SCT250
      TEMPO 2001/2003 VRB03KT BKN009 BKN250
     FM200300 VRB03KT 4SM BR OVC007
     FM200900 22003KT 2SM -RA BR OVC004=

USA.gov is the U.S. government's official web portal to all federal, state and local government web resources and services.